createdAt,value
2023-04-10T00:00:38.405Z,20.65
2023-04-10T00:03:06.215Z,20.02
2023-04-10T00:05:33.528Z,18.23
2023-04-10T00:08:01.139Z,18.48
2023-04-10T00:10:30.577Z,17.77
2023-04-10T00:12:58.086Z,17.70
2023-04-10T00:15:25.259Z,19.95
2023-04-10T00:17:55.334Z,18.33
2023-04-10T00:20:23.504Z,19.13
2023-04-10T00:22:50.700Z,17.73
2023-04-10T00:25:17.970Z,20.40
2023-04-10T00:27:45.054Z,18.52
2023-04-10T00:30:12.313Z,19.63
2023-04-10T00:32:39.652Z,18.20
2023-04-10T00:35:08.311Z,18.85
2023-04-10T00:37:35.824Z,17.63
2023-04-10T00:40:03.257Z,19.67
2023-04-10T00:42:30.528Z,19.02
2023-04-10T00:44:57.589Z,19.73
2023-04-10T00:47:25.908Z,17.65
2023-04-10T00:49:53.252Z,18.48
2023-04-10T00:52:20.627Z,19.00
2023-04-10T00:54:47.850Z,18.88
2023-04-10T00:57:14.948Z,20.80
2023-04-10T00:59:42.417Z,21.20
2023-04-10T01:02:11.538Z,22.52
2023-04-10T01:04:39.020Z,24.17
2023-04-10T01:07:26.290Z,20.27
2023-04-10T01:10:07.170Z,20.42
2023-04-10T01:12:43.575Z,27.00
2023-04-10T01:15:20.162Z,25.38
2023-04-10T01:18:04.981Z,23.55
2023-04-10T01:20:39.590Z,25.35
2023-04-10T01:23:28.201Z,24.35
2023-04-10T01:26:06.630Z,24.95
2023-04-10T01:29:02.022Z,22.85
2023-04-10T01:31:51.064Z,22.52
2023-04-10T01:34:23.405Z,22.58
2023-04-10T01:36:55.512Z,23.15
2023-04-10T01:39:24.188Z,26.83
2023-04-10T01:41:52.973Z,25.33
2023-04-10T01:44:29.299Z,23.15
2023-04-10T01:46:57.756Z,25.75
2023-04-10T01:49:27.458Z,27.83
2023-04-10T01:51:58.586Z,24.63
2023-04-10T01:54:29.050Z,24.33
2023-04-10T01:56:56.977Z,22.73
2023-04-10T01:59:24.220Z,22.85
2023-04-10T02:01:57.716Z,20.42
2023-04-10T02:04:26.834Z,22.15
2023-04-10T02:07:06.215Z,22.25
2023-04-10T02:09:48.127Z,24.60
2023-04-10T02:12:26.862Z,21.10
2023-04-10T02:14:56.345Z,21.20
2023-04-10T02:17:29.111Z,23.00
2023-04-10T02:19:57.802Z,24.00
2023-04-10T02:22:25.999Z,22.13
2023-04-10T02:24:54.194Z,24.75
2023-04-10T02:27:31.755Z,20.88
2023-04-10T02:29:59.084Z,24.05
2023-04-10T02:32:26.564Z,25.38
2023-04-10T02:34:53.756Z,24.55
2023-04-10T02:37:21.778Z,23.65
2023-04-10T02:39:48.839Z,23.20
2023-04-10T02:42:16.338Z,22.70
2023-04-10T02:44:43.397Z,23.73
2023-04-10T02:47:10.752Z,24.63
2023-04-10T02:49:37.845Z,23.67
2023-04-10T02:52:05.214Z,23.63
2023-04-10T02:54:32.289Z,23.98
2023-04-10T02:57:00.193Z,26.33
2023-04-10T02:59:27.877Z,25.42
2023-04-10T03:01:55.070Z,26.35
2023-04-10T03:04:22.360Z,25.02
2023-04-10T03:06:49.540Z,23.33
2023-04-10T03:09:17.120Z,23.48
2023-04-10T03:11:44.189Z,25.15
2023-04-10T03:14:11.269Z,23.13
2023-04-10T03:16:38.440Z,26.15
2023-04-10T03:19:05.746Z,24.42
2023-04-10T03:21:33.023Z,21.70
2023-04-10T03:24:00.174Z,23.23
2023-04-10T03:26:27.944Z,20.45
2023-04-10T03:28:55.074Z,20.27
2023-04-10T03:31:22.226Z,18.98
2023-04-10T03:33:49.303Z,20.63
2023-04-10T03:36:17.050Z,20.27
2023-04-10T03:38:44.139Z,20.92
2023-04-10T03:41:11.350Z,21.40
2023-04-10T03:43:39.406Z,25.10
2023-04-10T03:46:06.627Z,26.42
2023-04-10T03:48:33.764Z,27.80
2023-04-10T03:51:00.879Z,28.17
2023-04-10T03:53:28.011Z,25.80
2023-04-10T03:55:55.171Z,27.55
2023-04-10T03:58:22.275Z,28.67
2023-04-10T04:00:49.380Z,25.48
2023-04-10T04:03:16.866Z,25.33
2023-04-10T04:05:43.983Z,26.63
2023-04-10T04:08:11.053Z,25.67
2023-04-10T04:10:38.162Z,24.88
2023-04-10T04:13:05.232Z,22.05
2023-04-10T04:15:32.348Z,22.83
2023-04-10T04:18:00.907Z,22.50
2023-04-10T04:20:28.206Z,20.73
2023-04-10T04:22:55.321Z,21.00
2023-04-10T04:25:22.476Z,22.85
2023-04-10T04:27:49.583Z,22.92
2023-04-10T04:30:16.700Z,20.48
2023-04-10T04:32:43.905Z,21.08
2023-04-10T04:35:11.251Z,20.65
2023-04-10T04:37:38.298Z,23.15
2023-04-10T04:40:06.066Z,22.50
2023-04-10T04:42:33.111Z,24.45
2023-04-10T04:45:00.220Z,24.20
2023-04-10T04:47:27.264Z,25.95
2023-04-10T04:49:54.290Z,22.77
2023-04-10T04:52:21.407Z,23.95
2023-04-10T04:54:48.524Z,22.77
2023-04-10T04:57:15.736Z,20.65
2023-04-10T04:59:42.837Z,25.10
2023-04-10T05:02:10.056Z,21.85
2023-04-10T05:04:37.205Z,22.98
2023-04-10T05:07:04.205Z,20.98
2023-04-10T05:09:31.258Z,18.15
2023-04-10T05:11:58.904Z,22.92
2023-04-10T05:14:26.007Z,20.02
2023-04-10T05:16:53.089Z,20.40
2023-04-10T05:19:21.140Z,20.20
2023-04-10T05:21:48.736Z,26.15
2023-04-10T05:24:16.466Z,22.88
2023-04-10T05:26:43.688Z,23.27
2023-04-10T05:29:12.589Z,21.13
2023-04-10T05:31:39.680Z,22.02
2023-04-10T05:34:06.833Z,31.40
2023-04-10T05:36:33.919Z,35.33
2023-04-10T05:39:00.916Z,34.47
2023-04-10T05:41:28.014Z,25.65
2023-04-10T05:43:55.177Z,27.92
2023-04-10T05:46:22.472Z,29.92
2023-04-10T05:48:49.633Z,24.35
2023-04-10T05:51:16.835Z,24.27
2023-04-10T05:53:43.931Z,26.75
2023-04-10T05:56:10.997Z,23.17
2023-04-10T05:58:38.145Z,24.45
2023-04-10T06:01:05.776Z,22.52
2023-04-10T06:03:32.918Z,20.23
2023-04-10T06:06:02.716Z,23.92
2023-04-10T06:08:29.791Z,22.98
2023-04-10T06:10:57.580Z,21.65
2023-04-10T06:13:24.948Z,25.00
2023-04-10T06:15:52.285Z,19.15
2023-04-10T06:18:19.499Z,22.08
2023-04-10T06:20:46.649Z,20.27
2023-04-10T06:23:14.381Z,20.60
2023-04-10T06:25:41.894Z,20.90
2023-04-10T06:28:09.379Z,21.27
2023-04-10T06:30:37.457Z,20.45
2023-04-10T06:33:04.641Z,17.40
2023-04-10T06:35:31.969Z,18.10
2023-04-10T06:37:58.965Z,18.83
2023-04-10T06:40:26.158Z,19.08
2023-04-10T06:42:53.254Z,19.08
2023-04-10T06:45:21.126Z,21.00
2023-04-10T06:47:49.131Z,23.45
2023-04-10T06:50:16.174Z,28.00
2023-04-10T06:52:44.312Z,21.48
2023-04-10T06:55:13.070Z,19.23
2023-04-10T06:57:40.697Z,21.52
2023-04-10T07:00:08.313Z,20.77
2023-04-10T07:02:35.625Z,19.33
2023-04-10T07:05:02.744Z,16.23
2023-04-10T07:07:30.001Z,18.45
2023-04-10T07:09:58.056Z,18.55
2023-04-10T07:12:25.700Z,18.05
2023-04-10T07:14:52.854Z,16.85
2023-04-10T07:17:20.221Z,17.50
2023-04-10T07:19:47.450Z,15.07
2023-04-10T07:22:16.056Z,20.23
2023-04-10T07:24:43.437Z,20.17
2023-04-10T07:27:10.521Z,17.73
2023-04-10T07:29:37.709Z,20.38
2023-04-10T07:32:05.426Z,22.90
2023-04-10T07:34:33.625Z,19.02
2023-04-10T07:37:01.164Z,19.20
2023-04-10T07:39:28.558Z,19.13
2023-04-10T07:41:55.804Z,19.10
2023-04-10T07:44:22.857Z,18.02
2023-04-10T07:46:52.370Z,18.50
2023-04-10T07:49:19.579Z,18.42
2023-04-10T07:51:46.747Z,18.60
2023-04-10T07:54:13.879Z,21.55
2023-04-10T07:56:41.218Z,19.35
2023-04-10T07:59:08.812Z,20.45
2023-04-10T08:01:36.019Z,21.30
2023-04-10T08:04:05.575Z,18.98
2023-04-10T08:06:33.169Z,20.00
2023-04-10T08:09:02.045Z,18.98
2023-04-10T08:11:31.689Z,22.60
2023-04-10T08:14:04.011Z,18.10
2023-04-10T08:16:32.666Z,19.23
2023-04-10T08:19:01.058Z,22.75
2023-04-10T08:21:29.961Z,16.65
2023-04-10T08:23:59.486Z,17.63
2023-04-10T08:26:27.569Z,19.25
2023-04-10T08:28:57.333Z,18.13
2023-04-10T08:31:26.931Z,19.05
2023-04-10T08:33:54.562Z,15.27
2023-04-10T08:36:22.337Z,15.48
2023-04-10T08:38:49.824Z,20.38
2023-04-10T08:41:18.456Z,13.93
2023-04-10T08:43:46.695Z,14.57
2023-04-10T08:46:16.844Z,14.68
2023-04-10T08:48:48.840Z,15.98
2023-04-10T08:51:26.214Z,14.50
2023-04-10T08:53:59.391Z,17.75
2023-04-10T08:56:27.218Z,14.60
2023-04-10T08:58:54.620Z,15.32
2023-04-10T09:01:22.204Z,15.13
2023-04-10T09:03:49.648Z,17.33
2023-04-10T09:06:16.845Z,14.57
2023-04-10T09:08:43.890Z,14.63
2023-04-10T09:11:13.540Z,15.40
2023-04-10T09:13:43.876Z,15.77
2023-04-10T09:16:12.073Z,17.95
2023-04-10T09:18:49.087Z,17.75
2023-04-10T09:21:20.959Z,15.77
2023-04-10T09:23:49.572Z,15.27
2023-04-10T09:26:28.567Z,16.55
2023-04-10T09:29:02.703Z,17.60
2023-04-10T09:31:32.291Z,17.60
2023-04-10T09:34:11.733Z,15.68
2023-04-10T09:36:39.132Z,16.17
2023-04-10T09:39:06.586Z,17.83
2023-04-10T09:41:34.090Z,17.20
2023-04-10T09:44:12.086Z,14.23
2023-04-10T09:46:39.165Z,14.65
2023-04-10T09:49:07.556Z,20.27
2023-04-10T09:51:36.069Z,14.45
2023-04-10T09:54:04.404Z,18.30
2023-04-10T09:56:34.464Z,14.13
2023-04-10T09:59:02.183Z,15.45
2023-04-10T10:01:30.176Z,14.70
2023-04-10T10:04:01.997Z,13.90
2023-04-10T10:06:32.206Z,14.20
2023-04-10T10:09:04.305Z,12.68
2023-04-10T10:11:36.058Z,11.75
2023-04-10T10:14:09.487Z,13.18
2023-04-10T10:16:52.794Z,11.63
2023-04-10T10:19:40.780Z,13.73
2023-04-10T10:24:56.991Z,11.77
2023-04-10T10:27:25.320Z,11.60
2023-04-10T10:29:54.406Z,11.63
2023-04-10T10:32:22.475Z,11.10
2023-04-10T10:34:53.122Z,14.25
2023-04-10T10:37:23.844Z,11.48
2023-04-10T10:39:59.353Z,10.25
2023-04-10T10:42:38.894Z,13.35
2023-04-10T10:45:13.868Z,13.93
2023-04-10T10:47:45.772Z,15.27
2023-04-10T10:50:12.875Z,15.38
2023-04-10T10:52:46.984Z,11.68
2023-04-10T10:55:23.178Z,13.82
2023-04-10T10:57:54.857Z,26.98
2023-04-10T11:00:23.697Z,33.60
2023-04-10T11:03:09.433Z,32.40
2023-04-10T11:05:59.827Z,18.30
2023-04-10T11:08:33.158Z,13.85
2023-04-10T11:11:05.982Z,13.52
2023-04-10T11:16:03.150Z,12.10
2023-04-10T11:18:56.234Z,15.07
2023-04-10T11:21:32.122Z,12.38
2023-04-10T11:23:59.562Z,10.68
2023-04-10T11:26:35.887Z,11.50
2023-04-10T11:29:12.868Z,12.57
2023-04-10T11:31:40.448Z,10.68
2023-04-10T11:34:08.736Z,10.70
2023-04-10T11:36:39.772Z,10.52
2023-04-10T11:39:14.569Z,17.05
2023-04-10T11:41:43.677Z,11.70
2023-04-10T11:44:22.656Z,16.52
2023-04-10T11:46:51.410Z,13.63
2023-04-10T11:49:26.748Z,13.88
2023-04-10T11:51:55.350Z,12.30
2023-04-10T11:54:24.697Z,13.20
2023-04-10T11:57:10.089Z,11.85
2023-04-10T11:59:37.248Z,12.68
2023-04-10T12:02:11.914Z,12.32
2023-04-10T12:04:40.484Z,13.90
2023-04-10T12:07:08.123Z,11.57
2023-04-10T12:09:35.333Z,11.15
2023-04-10T12:12:05.949Z,8.85
2023-04-10T12:14:39.793Z,9.95
2023-04-10T12:17:11.670Z,11.93
2023-04-10T12:19:39.864Z,11.40
2023-04-10T12:22:07.822Z,11.80
2023-04-10T12:24:48.334Z,10.88
2023-04-10T12:27:28.038Z,12.18
2023-04-10T12:29:57.715Z,12.32
2023-04-10T12:32:25.841Z,11.57
2023-04-10T12:34:57.855Z,12.43
2023-04-10T12:37:26.909Z,13.48
2023-04-10T12:40:05.067Z,12.07
2023-04-10T12:42:42.180Z,15.13
2023-04-10T12:45:10.341Z,12.25
2023-04-10T12:47:49.240Z,13.48
2023-04-10T12:50:18.531Z,11.00
2023-04-10T12:52:47.057Z,14.00
2023-04-10T12:55:16.997Z,9.93
2023-04-10T12:57:49.328Z,10.85
2023-04-10T13:00:18.935Z,12.52
2023-04-10T13:02:47.671Z,8.52
2023-04-10T13:05:15.788Z,8.35
2023-04-10T13:07:43.196Z,10.02
2023-04-10T13:10:10.689Z,11.27
2023-04-10T13:12:39.298Z,11.65
2023-04-10T13:15:07.968Z,11.82
2023-04-10T13:17:35.503Z,11.20
2023-04-10T13:20:02.820Z,10.02
2023-04-10T13:22:29.957Z,11.55
2023-04-10T13:24:57.120Z,10.68
2023-04-10T13:27:24.241Z,12.00
2023-04-10T13:29:51.346Z,8.80
2023-04-10T13:32:18.351Z,9.60
2023-04-10T13:34:45.599Z,11.00
2023-04-10T13:37:13.573Z,13.02
2023-04-10T13:39:40.895Z,10.98
2023-04-10T13:42:08.009Z,9.68
2023-04-10T13:44:35.112Z,12.82
2023-04-10T13:47:02.381Z,11.05
2023-04-10T13:49:30.643Z,7.30
2023-04-10T13:51:58.241Z,10.95
2023-04-10T13:54:26.723Z,11.27
2023-04-10T13:56:55.102Z,10.30
2023-04-10T13:59:22.421Z,8.88
2023-04-10T14:01:52.742Z,9.07
2023-04-10T14:04:20.154Z,8.93
2023-04-10T14:06:48.015Z,11.02
2023-04-10T14:09:16.131Z,14.02
2023-04-10T14:11:43.352Z,10.52
2023-04-10T14:14:10.454Z,10.55
2023-04-10T14:16:37.603Z,10.52
2023-04-10T14:19:04.713Z,10.93
2023-04-10T14:21:31.945Z,11.45
2023-04-10T14:24:00.166Z,10.85
2023-04-10T14:26:27.550Z,13.85
2023-04-10T14:28:54.815Z,9.93
2023-04-10T14:31:22.142Z,9.18
2023-04-10T14:33:49.724Z,9.80
2023-04-10T14:36:17.100Z,10.88
2023-04-10T14:38:44.266Z,10.15
2023-04-10T14:41:11.680Z,10.38
2023-04-10T14:43:38.776Z,9.63
2023-04-10T14:46:06.397Z,8.63
2023-04-10T14:48:33.761Z,9.40
2023-04-10T14:51:01.502Z,7.95
2023-04-10T14:53:28.675Z,8.32
2023-04-10T14:55:55.825Z,8.57
2023-04-10T14:58:22.924Z,6.07
2023-04-10T15:00:51.129Z,6.72
2023-04-10T15:03:18.402Z,6.85
2023-04-10T15:05:46.011Z,9.40
2023-04-10T15:08:13.101Z,9.82
2023-04-10T15:10:40.247Z,7.18
2023-04-10T15:13:07.466Z,8.55
2023-04-10T15:15:34.624Z,7.95
2023-04-10T15:18:01.701Z,6.95
2023-04-10T15:20:28.946Z,13.32
2023-04-10T15:22:55.995Z,7.90
2023-04-10T15:25:23.061Z,13.57
2023-04-10T15:27:50.276Z,8.32
2023-04-10T15:30:17.893Z,8.13
2023-04-10T15:32:45.268Z,8.32
2023-04-10T15:35:12.459Z,9.60
2023-04-10T15:37:39.558Z,8.50
2023-04-10T15:40:07.712Z,9.82
2023-04-10T15:42:35.487Z,10.15
2023-04-10T15:45:03.773Z,9.25
2023-04-10T15:47:31.389Z,8.60
2023-04-10T15:49:59.093Z,8.40
2023-04-10T15:52:26.234Z,7.30
2023-04-10T15:54:53.472Z,7.47
2023-04-10T15:57:20.632Z,7.03
2023-04-10T15:59:51.331Z,7.68
2023-04-10T16:02:18.547Z,7.90
2023-04-10T16:04:45.800Z,10.18
2023-04-10T16:07:12.945Z,7.95
2023-04-10T16:09:39.987Z,6.82
2023-04-10T16:12:07.194Z,8.77
2023-04-10T16:14:34.313Z,9.55
2023-04-10T16:17:01.515Z,8.90
2023-04-10T16:19:32.065Z,7.80
2023-04-10T16:21:59.115Z,9.85
2023-04-10T16:24:26.778Z,8.23
2023-04-10T16:26:54.335Z,8.05
2023-04-10T16:29:21.831Z,10.80
2023-04-10T16:31:49.107Z,9.50
2023-04-10T16:34:22.770Z,8.57
2023-04-10T16:37:02.612Z,10.07
2023-04-10T16:39:34.037Z,7.97
2023-04-10T16:42:12.590Z,9.75
2023-04-10T16:44:41.219Z,12.23
2023-04-10T16:47:13.572Z,13.38
2023-04-10T16:49:46.035Z,11.30
2023-04-10T16:52:14.303Z,9.85
2023-04-10T16:54:43.420Z,10.27
2023-04-10T16:57:10.556Z,10.30
2023-04-10T16:59:38.018Z,10.15
2023-04-10T17:02:05.168Z,12.63
2023-04-10T17:04:32.904Z,12.40
2023-04-10T17:07:00.151Z,10.23
2023-04-10T17:09:27.444Z,11.98
2023-04-10T17:11:54.958Z,10.30
2023-04-10T17:14:22.486Z,14.15
2023-04-10T17:16:52.003Z,12.50
2023-04-10T17:19:19.423Z,12.93
2023-04-10T17:21:46.832Z,14.90
2023-04-10T17:24:14.372Z,15.30
2023-04-10T17:26:45.371Z,18.05
2023-04-10T17:29:12.991Z,19.30
2023-04-10T17:31:40.485Z,21.70
2023-04-10T17:34:08.137Z,24.08
2023-04-10T17:36:35.534Z,20.20
2023-04-10T17:39:02.830Z,19.55
2023-04-10T17:41:32.411Z,17.70
2023-04-10T17:43:59.627Z,14.10
2023-04-10T17:46:27.187Z,13.82
2023-04-10T17:49:17.560Z,15.45
2023-04-10T17:51:45.678Z,15.05
2023-04-10T17:54:12.897Z,18.25
2023-04-10T17:56:40.053Z,17.85
2023-04-10T17:59:07.130Z,19.05
2023-04-10T18:01:34.421Z,21.48
2023-04-10T18:04:03.098Z,22.10
2023-04-10T18:06:30.419Z,18.70
2023-04-10T18:08:58.094Z,21.77
2023-04-10T18:11:25.600Z,21.98
2023-04-10T18:13:52.739Z,20.48
2023-04-10T18:16:19.936Z,19.88
2023-04-10T18:18:47.148Z,15.45
2023-04-10T18:21:14.362Z,22.02
2023-04-10T18:23:41.781Z,19.60
2023-04-10T18:26:09.064Z,21.17
2023-04-10T18:28:36.586Z,25.42
2023-04-10T18:31:03.753Z,24.35
2023-04-10T18:33:31.265Z,24.95
2023-04-10T18:36:00.407Z,25.48
2023-04-10T18:38:27.838Z,25.92
2023-04-10T18:40:58.531Z,28.23
2023-04-10T18:43:27.672Z,28.13
2023-04-10T18:45:55.382Z,31.60
2023-04-10T18:48:22.541Z,32.85
2023-04-10T18:50:52.377Z,29.02
2023-04-10T18:53:19.925Z,30.98
2023-04-10T18:55:54.463Z,31.30
2023-04-10T18:58:22.366Z,31.30
2023-04-10T19:00:49.854Z,31.75
2023-04-10T19:03:17.225Z,30.05
2023-04-10T19:05:44.654Z,35.92
2023-04-10T19:08:14.567Z,28.70
2023-04-10T19:10:42.521Z,27.98
2023-04-10T19:13:12.056Z,28.63
2023-04-10T19:15:43.843Z,29.25
2023-04-10T19:18:13.009Z,27.67
2023-04-10T19:20:50.738Z,26.90
2023-04-10T19:23:20.617Z,28.48
2023-04-10T19:25:52.550Z,27.92
2023-04-10T19:28:19.714Z,30.23
2023-04-10T19:30:47.079Z,28.98
2023-04-10T19:33:14.203Z,27.45
2023-04-10T19:35:41.319Z,25.50
2023-04-10T19:38:08.506Z,26.98
2023-04-10T19:40:37.731Z,27.35
2023-04-10T19:43:04.809Z,25.75
2023-04-10T19:45:33.314Z,25.90
2023-04-10T19:48:00.602Z,25.10
2023-04-10T19:50:30.130Z,24.35
2023-04-10T19:52:58.095Z,25.98
2023-04-10T19:55:25.674Z,27.70
2023-04-10T19:57:52.758Z,29.33
2023-04-10T20:00:19.810Z,28.25
2023-04-10T20:02:47.296Z,28.80
2023-04-10T20:05:14.696Z,27.40
2023-04-10T20:07:42.216Z,26.02
2023-04-10T20:10:09.958Z,22.35
2023-04-10T20:12:37.089Z,24.23
2023-04-10T20:15:05.363Z,24.33
2023-04-10T20:17:32.521Z,25.85
2023-04-10T20:19:59.701Z,30.77
2023-04-10T20:22:26.811Z,24.50
2023-04-10T20:24:54.006Z,23.73
2023-04-10T20:27:21.059Z,26.88
2023-04-10T20:29:48.055Z,27.55
2023-04-10T20:32:15.208Z,24.60
2023-04-10T20:34:42.220Z,24.27
2023-04-10T20:37:09.284Z,21.38
2023-04-10T20:39:38.009Z,22.00
2023-04-10T20:42:06.320Z,25.80
2023-04-10T20:44:37.833Z,22.70
2023-04-10T20:47:07.795Z,26.95
2023-04-10T20:49:37.556Z,25.75
2023-04-10T20:52:06.405Z,23.65
2023-04-10T20:54:34.196Z,23.20
2023-04-10T20:57:01.971Z,27.55
2023-04-10T20:59:33.032Z,22.98
2023-04-10T21:02:01.208Z,22.52
2023-04-10T21:04:28.805Z,22.98
2023-04-10T21:06:56.978Z,22.75
2023-04-10T21:09:25.011Z,20.65
2023-04-10T21:11:55.233Z,21.52
2023-04-10T21:14:23.061Z,23.70
2023-04-10T21:16:50.545Z,24.52
2023-04-10T21:19:17.708Z,24.50
2023-04-10T21:21:44.944Z,22.73
2023-04-10T21:24:12.033Z,25.35
2023-04-10T21:26:39.958Z,26.08
2023-04-10T21:29:06.994Z,33.53
2023-04-10T21:31:34.203Z,40.33
2023-04-10T21:34:01.458Z,41.47
2023-04-10T21:36:28.585Z,49.17
2023-04-10T21:38:56.187Z,45.60
2023-04-10T21:41:24.548Z,36.97
2023-04-10T21:43:51.904Z,30.83
2023-04-10T21:46:19.056Z,25.70
2023-04-10T21:48:46.267Z,20.85
2023-04-10T21:51:13.450Z,18.73
2023-04-10T21:53:40.657Z,22.85
2023-04-10T21:56:08.189Z,20.92
2023-04-10T21:58:35.425Z,19.45
2023-04-10T22:01:02.527Z,21.08
2023-04-10T22:03:31.991Z,22.40
2023-04-10T22:05:59.344Z,24.30
2023-04-10T22:08:26.597Z,21.80
2023-04-10T22:10:53.701Z,23.33
2023-04-10T22:13:30.399Z,23.98
2023-04-10T22:15:58.674Z,22.52
2023-04-10T22:18:27.324Z,22.45
2023-04-10T22:20:54.942Z,21.23
2023-04-10T22:23:22.081Z,21.65
2023-04-10T22:25:49.236Z,23.33
2023-04-10T22:28:16.302Z,24.35
2023-04-10T22:30:43.638Z,19.83
2023-04-10T22:33:12.013Z,22.23
2023-04-10T22:35:39.166Z,20.50
2023-04-10T22:38:07.842Z,21.73
2023-04-10T22:40:35.141Z,19.83
2023-04-10T22:43:02.538Z,21.95
2023-04-10T22:45:29.610Z,20.58
2023-04-10T22:47:56.859Z,24.90
2023-04-10T22:50:23.969Z,21.67
2023-04-10T22:52:51.049Z,27.00
2023-04-10T22:55:18.281Z,22.70
2023-04-10T22:57:49.482Z,28.45
2023-04-10T23:00:16.795Z,28.05
2023-04-10T23:02:43.963Z,25.58
2023-04-10T23:05:11.239Z,27.55
2023-04-10T23:07:38.337Z,27.63
2023-04-10T23:10:05.926Z,24.73
2023-04-10T23:12:33.045Z,24.60
2023-04-10T23:15:00.188Z,27.73
2023-04-10T23:17:27.237Z,29.13
2023-04-10T23:19:54.806Z,45.28
2023-04-10T23:22:21.925Z,48.95
2023-04-10T23:24:56.771Z,42.28
2023-04-10T23:27:24.261Z,34.30
2023-04-10T23:29:51.392Z,30.65
2023-04-10T23:32:18.414Z,32.10
2023-04-10T23:34:45.506Z,40.00
2023-04-10T23:37:12.608Z,46.70
2023-04-10T23:39:40.160Z,41.55
2023-04-10T23:42:07.249Z,43.60
2023-04-10T23:44:34.399Z,44.28
2023-04-10T23:47:01.626Z,41.65
2023-04-10T23:49:29.141Z,42.40
2023-04-10T23:51:56.321Z,49.03
2023-04-10T23:54:23.363Z,40.63
2023-04-10T23:56:50.555Z,39.38
2023-04-10T23:59:19.225Z,35.67
